LTCK/MSR METAR and TAF weather

Enter ICAO airport designator
Station Type Date Time Source
LTCK METAR 2019/08/25 19:50 UTC NOAA

LTCK 251950Z 11005KT 9999 FEW035 20/05 Q1017


Station Type Date Time Source
LTCK Decoded METAR 2019/08/25 19:50 UTC NOAA

Station name not available
Aug 25, 2019 - 03:50 PM EDT / 2019.08.25 1950 UTC
Wind: from the ESE (110 degrees) at 6 MPH (5 KT):0
Visibility: greater than 7 mile(s):0
Sky conditions: mostly clear
Temperature: 68 F (20 C)
Dew Point: 41 F (5 C)
Relative Humidity: 37%
Pressure (altimeter): 30.03 in. Hg (1017 hPa)
ob: LTCK 251950Z 11005KT 9999 FEW035 20/05 Q1017
cycle: 20

Station Type Date Time Source
LTCK TAF UTC NOAA

Error!

Example: see airport list